sensor_id;sensor_type;location;lat;lon;timestamp;P1;durP1;ratioP1;P2;durP2;ratioP2
19026;SDS011;9646;52.034;5.554;2022-12-29T00:00:06;2.83;;;1.50;;
19026;SDS011;9646;52.034;5.554;2022-12-29T00:02:35;2.45;;;1.60;;
19026;SDS011;9646;52.034;5.554;2022-12-29T00:05:02;2.60;;;2.05;;
19026;SDS011;9646;52.034;5.554;2022-12-29T00:07:29;2.72;;;1.38;;
19026;SDS011;9646;52.034;5.554;2022-12-29T00:09:56;3.10;;;1.52;;
19026;SDS011;9646;52.034;5.554;2022-12-29T00:12:23;1.73;;;1.35;;
19026;SDS011;9646;52.034;5.554;2022-12-29T00:15:10;2.25;;;1.80;;
19026;SDS011;9646;52.034;5.554;2022-12-29T00:17:56;2.22;;;1.70;;
19026;SDS011;9646;52.034;5.554;2022-12-29T00:20:23;1.75;;;1.65;;
19026;SDS011;9646;52.034;5.554;2022-12-29T00:23:08;2.08;;;1.60;;
19026;SDS011;9646;52.034;5.554;2022-12-29T00:25:53;1.55;;;1.45;;
19026;SDS011;9646;52.034;5.554;2022-12-29T00:28:37;1.95;;;1.40;;
19026;SDS011;9646;52.034;5.554;2022-12-29T00:31:22;2.47;;;1.52;;
19026;SDS011;9646;52.034;5.554;2022-12-29T00:34:09;2.33;;;1.40;;
19026;SDS011;9646;52.034;5.554;2022-12-29T00:36:55;2.88;;;1.88;;
19026;SDS011;9646;52.034;5.554;2022-12-29T00:39:22;2.72;;;1.60;;
19026;SDS011;9646;52.034;5.554;2022-12-29T00:42:07;1.50;;;1.35;;
19026;SDS011;9646;52.034;5.554;2022-12-29T00:44:52;2.30;;;1.33;;
19026;SDS011;9646;52.034;5.554;2022-12-29T00:47:19;1.67;;;1.40;;
19026;SDS011;9646;52.034;5.554;2022-12-29T00:49:48;2.47;;;1.10;;
19026;SDS011;9646;52.034;5.554;2022-12-29T00:52:14;2.22;;;1.33;;
19026;SDS011;9646;52.034;5.554;2022-12-29T00:54:41;3.08;;;1.08;;
19026;SDS011;9646;52.034;5.554;2022-12-29T00:57:10;2.05;;;1.23;;
19026;SDS011;9646;52.034;5.554;2022-12-29T00:59:38;3.38;;;1.30;;
19026;SDS011;9646;52.034;5.554;2022-12-29T01:02:06;2.95;;;1.20;;
19026;SDS011;9646;52.034;5.554;2022-12-29T01:04:33;1.75;;;1.08;;
19026;SDS011;9646;52.034;5.554;2022-12-29T01:07:01;2.30;;;1.10;;
19026;SDS011;9646;52.034;5.554;2022-12-29T01:09:28;1.08;;;0.98;;
19026;SDS011;9646;52.034;5.554;2022-12-29T01:12:13;1.17;;;1.00;;
19026;SDS011;9646;52.034;5.554;2022-12-29T01:14:40;1.27;;;0.90;;
19026;SDS011;9646;52.034;5.554;2022-12-29T01:17:07;1.35;;;0.98;;
19026;SDS011;9646;52.034;5.554;2022-12-29T01:19:34;1.67;;;1.23;;
19026;SDS011;9646;52.034;5.554;2022-12-29T01:22:02;2.70;;;1.27;;
19026;SDS011;9646;52.034;5.554;2022-12-29T01:24:29;1.15;;;0.90;;
19026;SDS011;9646;52.034;5.554;2022-12-29T01:26:56;0.95;;;0.88;;
19026;SDS011;9646;52.034;5.554;2022-12-29T01:29:23;1.08;;;0.82;;
19026;SDS011;9646;52.034;5.554;2022-12-29T01:31:50;1.02;;;0.77;;
19026;SDS011;9646;52.034;5.554;2022-12-29T01:34:17;1.77;;;0.70;;
19026;SDS011;9646;52.034;5.554;2022-12-29T01:36:44;2.00;;;0.70;;
19026;SDS011;9646;52.034;5.554;2022-12-29T01:39:13;1.30;;;0.80;;
19026;SDS011;9646;52.034;5.554;2022-12-29T01:41:40;1.52;;;0.90;;
19026;SDS011;9646;52.034;5.554;2022-12-29T01:46:53;1.60;;;0.80;;
19026;SDS011;9646;52.034;5.554;2022-12-29T01:49:20;1.13;;;0.93;;
19026;SDS011;9646;52.034;5.554;2022-12-29T01:51:50;0.80;;;0.65;;
19026;SDS011;9646;52.034;5.554;2022-12-29T01:54:21;2.95;;;0.90;;
19026;SDS011;9646;52.034;5.554;2022-12-29T01:56:49;2.00;;;1.10;;
19026;SDS011;9646;52.034;5.554;2022-12-29T01:59:17;1.17;;;0.80;;
19026;SDS011;9646;52.034;5.554;2022-12-29T02:01:46;1.25;;;0.77;;
19026;SDS011;9646;52.034;5.554;2022-12-29T02:04:14;1.63;;;0.82;;
19026;SDS011;9646;52.034;5.554;2022-12-29T02:06:41;0.90;;;0.75;;
19026;SDS011;9646;52.034;5.554;2022-12-29T02:09:08;0.90;;;0.80;;
19026;SDS011;9646;52.034;5.554;2022-12-29T02:11:37;1.63;;;0.93;;
19026;SDS011;9646;52.034;5.554;2022-12-29T02:14:07;1.83;;;1.00;;
19026;SDS011;9646;52.034;5.554;2022-12-29T02:16:48;1.73;;;0.90;;
19026;SDS011;9646;52.034;5.554;2022-12-29T02:19:38;0.90;;;0.80;;
19026;SDS011;9646;52.034;5.554;2022-12-29T02:22:11;3.15;;;1.05;;
19026;SDS011;9646;52.034;5.554;2022-12-29T02:27:40;1.20;;;0.70;;
19026;SDS011;9646;52.034;5.554;2022-12-29T02:30:28;1.67;;;0.70;;
19026;SDS011;9646;52.034;5.554;2022-12-29T02:32:57;2.80;;;0.80;;
19026;SDS011;9646;52.034;5.554;2022-12-29T02:35:37;2.97;;;0.95;;
19026;SDS011;9646;52.034;5.554;2022-12-29T02:38:09;0.90;;;0.60;;
19026;SDS011;9646;52.034;5.554;2022-12-29T02:40:40;2.47;;;0.70;;
19026;SDS011;9646;52.034;5.554;2022-12-29T02:43:12;3.88;;;1.00;;
19026;SDS011;9646;52.034;5.554;2022-12-29T02:45:44;4.25;;;0.55;;
19026;SDS011;9646;52.034;5.554;2022-12-29T02:48:15;1.20;;;0.47;;
19026;SDS011;9646;52.034;5.554;2022-12-29T02:50:47;0.75;;;0.50;;
19026;SDS011;9646;52.034;5.554;2022-12-29T02:53:17;1.35;;;0.50;;
19026;SDS011;9646;52.034;5.554;2022-12-29T02:56:05;2.00;;;0.70;;
19026;SDS011;9646;52.034;5.554;2022-12-29T02:58:32;2.90;;;0.60;;
19026;SDS011;9646;52.034;5.554;2022-12-29T03:01:05;1.48;;;0.60;;
19026;SDS011;9646;52.034;5.554;2022-12-29T03:03:36;3.33;;;0.80;;
19026;SDS011;9646;52.034;5.554;2022-12-29T03:06:12;1.45;;;0.63;;
19026;SDS011;9646;52.034;5.554;2022-12-29T03:08:43;3.58;;;0.70;;
19026;SDS011;9646;52.034;5.554;2022-12-29T03:11:11;2.13;;;0.77;;
19026;SDS011;9646;52.034;5.554;2022-12-29T03:13:54;1.63;;;0.95;;
19026;SDS011;9646;52.034;5.554;2022-12-29T03:16:44;2.10;;;0.80;;
19026;SDS011;9646;52.034;5.554;2022-12-29T03:19:14;2.03;;;1.00;;
19026;SDS011;9646;52.034;5.554;2022-12-29T03:21:43;2.65;;;0.60;;
19026;SDS011;9646;52.034;5.554;2022-12-29T03:24:29;2.00;;;0.70;;
19026;SDS011;9646;52.034;5.554;2022-12-29T03:26:58;1.33;;;0.70;;
19026;SDS011;9646;52.034;5.554;2022-12-29T03:29:25;2.28;;;0.68;;
19026;SDS011;9646;52.034;5.554;2022-12-29T03:31:55;0.90;;;0.50;;
19026;SDS011;9646;52.034;5.554;2022-12-29T03:34:22;1.42;;;0.68;;
19026;SDS011;9646;52.034;5.554;2022-12-29T03:36:51;2.13;;;0.70;;
19026;SDS011;9646;52.034;5.554;2022-12-29T03:39:20;3.92;;;0.70;;
19026;SDS011;9646;52.034;5.554;2022-12-29T03:41:48;2.53;;;1.10;;
19026;SDS011;9646;52.034;5.554;2022-12-29T03:44:16;1.63;;;0.65;;
19026;SDS011;9646;52.034;5.554;2022-12-29T03:46:43;0.98;;;0.50;;
19026;SDS011;9646;52.034;5.554;2022-12-29T03:49:11;1.65;;;0.73;;
19026;SDS011;9646;52.034;5.554;2022-12-29T03:51:38;1.48;;;0.60;;
19026;SDS011;9646;52.034;5.554;2022-12-29T03:54:05;3.97;;;0.80;;
19026;SDS011;9646;52.034;5.554;2022-12-29T03:56:32;2.72;;;0.57;;
19026;SDS011;9646;52.034;5.554;2022-12-29T03:58:59;2.85;;;0.80;;
19026;SDS011;9646;52.034;5.554;2022-12-29T04:01:27;2.35;;;0.70;;
19026;SDS011;9646;52.034;5.554;2022-12-29T04:03:54;3.47;;;0.65;;
19026;SDS011;9646;52.034;5.554;2022-12-29T04:06:22;3.03;;;0.98;;
19026;SDS011;9646;52.034;5.554;2022-12-29T04:08:49;4.30;;;1.15;;
19026;SDS011;9646;52.034;5.554;2022-12-29T04:11:16;3.85;;;0.80;;
19026;SDS011;9646;52.034;5.554;2022-12-29T04:13:43;4.43;;;1.08;;
19026;SDS011;9646;52.034;5.554;2022-12-29T04:16:10;4.15;;;1.15;;
19026;SDS011;9646;52.034;5.554;2022-12-29T04:18:37;4.25;;;1.02;;
19026;SDS011;9646;52.034;5.554;2022-12-29T04:21:05;3.22;;;0.95;;
19026;SDS011;9646;52.034;5.554;2022-12-29T04:23:34;2.58;;;0.90;;
19026;SDS011;9646;52.034;5.554;2022-12-29T04:26:02;4.63;;;1.10;;
19026;SDS011;9646;52.034;5.554;2022-12-29T04:28:29;2.53;;;0.80;;
19026;SDS011;9646;52.034;5.554;2022-12-29T04:30:56;3.45;;;1.13;;
19026;SDS011;9646;52.034;5.554;2022-12-29T04:33:23;3.92;;;1.30;;
19026;SDS011;9646;52.034;5.554;2022-12-29T04:35:51;3.58;;;1.10;;
19026;SDS011;9646;52.034;5.554;2022-12-29T04:38:19;3.22;;;1.10;;
19026;SDS011;9646;52.034;5.554;2022-12-29T04:40:48;3.95;;;0.90;;
19026;SDS011;9646;52.034;5.554;2022-12-29T04:43:16;4.40;;;1.33;;
19026;SDS011;9646;52.034;5.554;2022-12-29T04:45:44;7.93;;;1.48;;
19026;SDS011;9646;52.034;5.554;2022-12-29T04:48:11;4.63;;;1.25;;
19026;SDS011;9646;52.034;5.554;2022-12-29T04:50:39;4.75;;;1.05;;
19026;SDS011;9646;52.034;5.554;2022-12-29T04:53:06;4.60;;;1.20;;
19026;SDS011;9646;52.034;5.554;2022-12-29T04:55:33;6.07;;;1.40;;
19026;SDS011;9646;52.034;5.554;2022-12-29T04:58:01;5.70;;;0.98;;
19026;SDS011;9646;52.034;5.554;2022-12-29T05:00:28;6.40;;;1.60;;
19026;SDS011;9646;52.034;5.554;2022-12-29T05:02:55;5.95;;;1.30;;
19026;SDS011;9646;52.034;5.554;2022-12-29T05:05:22;6.35;;;1.33;;
19026;SDS011;9646;52.034;5.554;2022-12-29T05:07:49;7.25;;;1.88;;
19026;SDS011;9646;52.034;5.554;2022-12-29T05:10:16;7.82;;;1.50;;
19026;SDS011;9646;52.034;5.554;2022-12-29T05:12:44;5.43;;;1.30;;
19026;SDS011;9646;52.034;5.554;2022-12-29T05:15:12;8.13;;;1.40;;
19026;SDS011;9646;52.034;5.554;2022-12-29T05:17:39;7.80;;;1.55;;
19026;SDS011;9646;52.034;5.554;2022-12-29T05:20:07;5.95;;;1.40;;
19026;SDS011;9646;52.034;5.554;2022-12-29T05:22:34;7.88;;;1.30;;
19026;SDS011;9646;52.034;5.554;2022-12-29T05:25:01;7.38;;;1.48;;
19026;SDS011;9646;52.034;5.554;2022-12-29T05:27:28;7.07;;;1.80;;
19026;SDS011;9646;52.034;5.554;2022-12-29T05:29:55;4.28;;;1.30;;
19026;SDS011;9646;52.034;5.554;2022-12-29T05:32:24;6.43;;;1.48;;
19026;SDS011;9646;52.034;5.554;2022-12-29T05:34:51;8.43;;;1.52;;
19026;SDS011;9646;52.034;5.554;2022-12-29T05:37:18;7.75;;;1.48;;
19026;SDS011;9646;52.034;5.554;2022-12-29T05:39:45;4.75;;;1.00;;
19026;SDS011;9646;52.034;5.554;2022-12-29T05:42:12;3.90;;;1.27;;
19026;SDS011;9646;52.034;5.554;2022-12-29T05:44:39;7.30;;;1.58;;
19026;SDS011;9646;52.034;5.554;2022-12-29T05:47:06;5.50;;;1.40;;
19026;SDS011;9646;52.034;5.554;2022-12-29T05:49:34;7.10;;;1.58;;
19026;SDS011;9646;52.034;5.554;2022-12-29T05:52:02;7.78;;;1.65;;
19026;SDS011;9646;52.034;5.554;2022-12-29T05:54:29;4.38;;;1.27;;
19026;SDS011;9646;52.034;5.554;2022-12-29T05:56:56;5.88;;;1.50;;
19026;SDS011;9646;52.034;5.554;2022-12-29T05:59:23;4.72;;;1.63;;
19026;SDS011;9646;52.034;5.554;2022-12-29T06:01:50;6.07;;;1.40;;
19026;SDS011;9646;52.034;5.554;2022-12-29T06:04:17;5.50;;;1.73;;
19026;SDS011;9646;52.034;5.554;2022-12-29T06:06:45;8.00;;;1.50;;
19026;SDS011;9646;52.034;5.554;2022-12-29T06:09:12;7.13;;;1.65;;
19026;SDS011;9646;52.034;5.554;2022-12-29T06:11:39;8.20;;;1.55;;
19026;SDS011;9646;52.034;5.554;2022-12-29T06:14:06;8.32;;;1.85;;
19026;SDS011;9646;52.034;5.554;2022-12-29T06:16:33;5.53;;;1.45;;
19026;SDS011;9646;52.034;5.554;2022-12-29T06:19:01;6.45;;;1.30;;
19026;SDS011;9646;52.034;5.554;2022-12-29T06:21:28;9.25;;;1.92;;
19026;SDS011;9646;52.034;5.554;2022-12-29T06:23:56;8.48;;;1.95;;
19026;SDS011;9646;52.034;5.554;2022-12-29T06:26:23;8.75;;;1.40;;
19026;SDS011;9646;52.034;5.554;2022-12-29T06:28:50;4.57;;;1.40;;
19026;SDS011;9646;52.034;5.554;2022-12-29T06:31:17;7.38;;;1.73;;
19026;SDS011;9646;52.034;5.554;2022-12-29T06:33:44;6.30;;;1.35;;
19026;SDS011;9646;52.034;5.554;2022-12-29T06:36:11;7.60;;;1.15;;
19026;SDS011;9646;52.034;5.554;2022-12-29T06:38:38;7.28;;;1.35;;
19026;SDS011;9646;52.034;5.554;2022-12-29T06:41:07;4.53;;;1.10;;
19026;SDS011;9646;52.034;5.554;2022-12-29T06:43:34;5.50;;;1.58;;
19026;SDS011;9646;52.034;5.554;2022-12-29T06:46:03;7.72;;;2.08;;
19026;SDS011;9646;52.034;5.554;2022-12-29T06:48:30;5.82;;;2.03;;
19026;SDS011;9646;52.034;5.554;2022-12-29T06:50:57;5.97;;;2.05;;
19026;SDS011;9646;52.034;5.554;2022-12-29T06:53:24;6.63;;;1.52;;
19026;SDS011;9646;52.034;5.554;2022-12-29T06:55:51;7.38;;;1.90;;
19026;SDS011;9646;52.034;5.554;2022-12-29T06:58:20;4.95;;;1.67;;
19026;SDS011;9646;52.034;5.554;2022-12-29T07:00:47;6.07;;;1.70;;
19026;SDS011;9646;52.034;5.554;2022-12-29T07:03:14;9.10;;;1.45;;
19026;SDS011;9646;52.034;5.554;2022-12-29T07:05:41;5.82;;;1.80;;
19026;SDS011;9646;52.034;5.554;2022-12-29T07:08:08;9.55;;;2.10;;
19026;SDS011;9646;52.034;5.554;2022-12-29T07:10:35;5.43;;;1.48;;
19026;SDS011;9646;52.034;5.554;2022-12-29T07:13:02;7.80;;;2.20;;
19026;SDS011;9646;52.034;5.554;2022-12-29T07:15:30;8.32;;;1.98;;
19026;SDS011;9646;52.034;5.554;2022-12-29T07:17:57;7.93;;;1.90;;
19026;SDS011;9646;52.034;5.554;2022-12-29T07:20:24;6.38;;;1.70;;
19026;SDS011;9646;52.034;5.554;2022-12-29T07:22:51;6.20;;;1.27;;
19026;SDS011;9646;52.034;5.554;2022-12-29T07:25:18;7.28;;;1.67;;
19026;SDS011;9646;52.034;5.554;2022-12-29T07:27:45;8.10;;;1.73;;
19026;SDS011;9646;52.034;5.554;2022-12-29T07:30:13;6.05;;;1.80;;
19026;SDS011;9646;52.034;5.554;2022-12-29T07:32:42;6.35;;;1.73;;
19026;SDS011;9646;52.034;5.554;2022-12-29T07:35:09;7.07;;;1.70;;
19026;SDS011;9646;52.034;5.554;2022-12-29T07:37:36;7.65;;;1.63;;
19026;SDS011;9646;52.034;5.554;2022-12-29T07:40:03;5.43;;;1.92;;
19026;SDS011;9646;52.034;5.554;2022-12-29T07:42:30;7.40;;;1.92;;
19026;SDS011;9646;52.034;5.554;2022-12-29T07:44:57;7.82;;;1.80;;
19026;SDS011;9646;52.034;5.554;2022-12-29T07:47:25;5.25;;;1.50;;
19026;SDS011;9646;52.034;5.554;2022-12-29T07:49:53;4.40;;;1.40;;
19026;SDS011;9646;52.034;5.554;2022-12-29T07:52:20;7.70;;;2.00;;
19026;SDS011;9646;52.034;5.554;2022-12-29T07:54:47;7.15;;;2.15;;
19026;SDS011;9646;52.034;5.554;2022-12-29T07:57:14;9.10;;;1.58;;
19026;SDS011;9646;52.034;5.554;2022-12-29T07:59:42;6.72;;;1.70;;
19026;SDS011;9646;52.034;5.554;2022-12-29T08:02:09;6.28;;;1.60;;
19026;SDS011;9646;52.034;5.554;2022-12-29T08:04:37;6.13;;;1.63;;
19026;SDS011;9646;52.034;5.554;2022-12-29T08:07:05;8.93;;;1.55;;
19026;SDS011;9646;52.034;5.554;2022-12-29T08:09:32;9.10;;;1.85;;
19026;SDS011;9646;52.034;5.554;2022-12-29T08:11:59;8.63;;;1.98;;
19026;SDS011;9646;52.034;5.554;2022-12-29T08:14:26;7.45;;;1.70;;
19026;SDS011;9646;52.034;5.554;2022-12-29T08:16:53;6.18;;;1.80;;
19026;SDS011;9646;52.034;5.554;2022-12-29T08:19:20;7.05;;;1.85;;
19026;SDS011;9646;52.034;5.554;2022-12-29T08:21:47;7.32;;;2.38;;
19026;SDS011;9646;52.034;5.554;2022-12-29T08:24:15;7.57;;;2.30;;
19026;SDS011;9646;52.034;5.554;2022-12-29T08:26:42;6.20;;;1.88;;
19026;SDS011;9646;52.034;5.554;2022-12-29T08:29:09;10.45;;;2.70;;
19026;SDS011;9646;52.034;5.554;2022-12-29T08:31:37;7.43;;;2.25;;
19026;SDS011;9646;52.034;5.554;2022-12-29T08:34:04;10.15;;;2.33;;
19026;SDS011;9646;52.034;5.554;2022-12-29T08:36:31;8.05;;;2.45;;
19026;SDS011;9646;52.034;5.554;2022-12-29T08:38:58;9.80;;;2.05;;
19026;SDS011;9646;52.034;5.554;2022-12-29T08:41:27;8.60;;;2.20;;
19026;SDS011;9646;52.034;5.554;2022-12-29T08:43:54;9.43;;;2.50;;
19026;SDS011;9646;52.034;5.554;2022-12-29T08:46:21;14.05;;;2.33;;
19026;SDS011;9646;52.034;5.554;2022-12-29T08:48:48;8.52;;;1.88;;
19026;SDS011;9646;52.034;5.554;2022-12-29T08:51:15;8.70;;;2.17;;
19026;SDS011;9646;52.034;5.554;2022-12-29T08:53:42;8.75;;;1.75;;
19026;SDS011;9646;52.034;5.554;2022-12-29T08:56:09;10.88;;;2.45;;
19026;SDS011;9646;52.034;5.554;2022-12-29T08:58:38;8.35;;;1.73;;
19026;SDS011;9646;52.034;5.554;2022-12-29T09:01:05;9.80;;;2.35;;
19026;SDS011;9646;52.034;5.554;2022-12-29T09:03:32;10.02;;;2.45;;
19026;SDS011;9646;52.034;5.554;2022-12-29T09:05:59;9.55;;;2.33;;
19026;SDS011;9646;52.034;5.554;2022-12-29T09:08:26;10.07;;;2.00;;
19026;SDS011;9646;52.034;5.554;2022-12-29T09:10:54;9.82;;;2.53;;
19026;SDS011;9646;52.034;5.554;2022-12-29T09:13:21;8.63;;;1.90;;
19026;SDS011;9646;52.034;5.554;2022-12-29T09:15:55;8.75;;;2.92;;
19026;SDS011;9646;52.034;5.554;2022-12-29T09:18:24;10.15;;;2.33;;
19026;SDS011;9646;52.034;5.554;2022-12-29T09:20:55;6.22;;;2.15;;
19026;SDS011;9646;52.034;5.554;2022-12-29T09:23:22;10.02;;;2.80;;
19026;SDS011;9646;52.034;5.554;2022-12-29T09:25:49;7.32;;;1.98;;
19026;SDS011;9646;52.034;5.554;2022-12-29T09:28:16;9.90;;;2.53;;
19026;SDS011;9646;52.034;5.554;2022-12-29T09:30:43;9.35;;;2.47;;
19026;SDS011;9646;52.034;5.554;2022-12-29T09:33:11;7.63;;;1.95;;
19026;SDS011;9646;52.034;5.554;2022-12-29T09:35:41;7.20;;;2.58;;
19026;SDS011;9646;52.034;5.554;2022-12-29T09:38:08;9.95;;;2.30;;
19026;SDS011;9646;52.034;5.554;2022-12-29T09:40:36;9.88;;;2.67;;
19026;SDS011;9646;52.034;5.554;2022-12-29T09:43:05;6.00;;;1.80;;
19026;SDS011;9646;52.034;5.554;2022-12-29T09:45:40;9.65;;;2.38;;
19026;SDS011;9646;52.034;5.554;2022-12-29T09:48:11;11.05;;;2.28;;
19026;SDS011;9646;52.034;5.554;2022-12-29T09:50:42;10.35;;;2.55;;
19026;SDS011;9646;52.034;5.554;2022-12-29T09:53:13;10.15;;;2.40;;
19026;SDS011;9646;52.034;5.554;2022-12-29T09:55:42;8.93;;;2.50;;
19026;SDS011;9646;52.034;5.554;2022-12-29T09:58:12;9.63;;;2.30;;
19026;SDS011;9646;52.034;5.554;2022-12-29T10:00:41;6.28;;;2.28;;
19026;SDS011;9646;52.034;5.554;2022-12-29T10:03:11;7.47;;;2.13;;
19026;SDS011;9646;52.034;5.554;2022-12-29T10:05:43;10.95;;;2.35;;
19026;SDS011;9646;52.034;5.554;2022-12-29T10:08:17;8.25;;;1.63;;
19026;SDS011;9646;52.034;5.554;2022-12-29T10:10:48;5.70;;;2.17;;
19026;SDS011;9646;52.034;5.554;2022-12-29T10:13:20;5.78;;;1.70;;
19026;SDS011;9646;52.034;5.554;2022-12-29T10:15:54;8.20;;;2.13;;
19026;SDS011;9646;52.034;5.554;2022-12-29T10:21:14;7.18;;;2.00;;
19026;SDS011;9646;52.034;5.554;2022-12-29T10:23:44;10.32;;;2.17;;
19026;SDS011;9646;52.034;5.554;2022-12-29T10:26:13;8.98;;;2.45;;
19026;SDS011;9646;52.034;5.554;2022-12-29T10:28:42;5.75;;;1.73;;
19026;SDS011;9646;52.034;5.554;2022-12-29T10:31:12;8.82;;;2.33;;
19026;SDS011;9646;52.034;5.554;2022-12-29T10:33:41;8.07;;;2.58;;
19026;SDS011;9646;52.034;5.554;2022-12-29T10:36:13;5.93;;;2.13;;
19026;SDS011;9646;52.034;5.554;2022-12-29T10:38:43;9.15;;;1.95;;
19026;SDS011;9646;52.034;5.554;2022-12-29T10:41:13;7.43;;;1.88;;
19026;SDS011;9646;52.034;5.554;2022-12-29T10:43:43;7.38;;;3.13;;
19026;SDS011;9646;52.034;5.554;2022-12-29T10:46:12;6.05;;;1.92;;
19026;SDS011;9646;52.034;5.554;2022-12-29T10:48:40;7.72;;;2.10;;
19026;SDS011;9646;52.034;5.554;2022-12-29T10:51:10;7.88;;;2.50;;
19026;SDS011;9646;52.034;5.554;2022-12-29T10:53:40;8.07;;;2.53;;
19026;SDS011;9646;52.034;5.554;2022-12-29T10:56:09;7.03;;;2.47;;
19026;SDS011;9646;52.034;5.554;2022-12-29T10:58:40;10.90;;;3.10;;
19026;SDS011;9646;52.034;5.554;2022-12-29T11:01:08;12.43;;;2.50;;
19026;SDS011;9646;52.034;5.554;2022-12-29T11:03:48;10.38;;;2.80;;
19026;SDS011;9646;52.034;5.554;2022-12-29T11:06:18;8.43;;;2.65;;
19026;SDS011;9646;52.034;5.554;2022-12-29T11:08:52;9.75;;;2.35;;
19026;SDS011;9646;52.034;5.554;2022-12-29T11:11:24;10.73;;;3.55;;
19026;SDS011;9646;52.034;5.554;2022-12-29T11:13:55;11.68;;;3.33;;
19026;SDS011;9646;52.034;5.554;2022-12-29T11:16:26;8.82;;;2.53;;
19026;SDS011;9646;52.034;5.554;2022-12-29T11:18:55;11.75;;;2.85;;
19026;SDS011;9646;52.034;5.554;2022-12-29T11:21:27;13.25;;;2.95;;
19026;SDS011;9646;52.034;5.554;2022-12-29T11:23:57;11.43;;;3.38;;
19026;SDS011;9646;52.034;5.554;2022-12-29T11:26:25;11.63;;;2.75;;
19026;SDS011;9646;52.034;5.554;2022-12-29T11:29:05;13.77;;;2.97;;
19026;SDS011;9646;52.034;5.554;2022-12-29T11:31:36;15.88;;;3.97;;
19026;SDS011;9646;52.034;5.554;2022-12-29T11:34:06;9.13;;;3.15;;
19026;SDS011;9646;52.034;5.554;2022-12-29T11:36:33;11.85;;;2.72;;
19026;SDS011;9646;52.034;5.554;2022-12-29T11:39:02;8.52;;;2.95;;
19026;SDS011;9646;52.034;5.554;2022-12-29T11:41:30;11.32;;;2.88;;
19026;SDS011;9646;52.034;5.554;2022-12-29T11:43:58;10.93;;;3.47;;
19026;SDS011;9646;52.034;5.554;2022-12-29T11:46:27;7.97;;;2.30;;
19026;SDS011;9646;52.034;5.554;2022-12-29T11:48:54;14.75;;;3.67;;
19026;SDS011;9646;52.034;5.554;2022-12-29T11:51:25;8.27;;;2.83;;
19026;SDS011;9646;52.034;5.554;2022-12-29T11:53:55;10.50;;;3.08;;
19026;SDS011;9646;52.034;5.554;2022-12-29T11:56:32;9.45;;;2.63;;
19026;SDS011;9646;52.034;5.554;2022-12-29T12:01:42;5.47;;;1.90;;
19026;SDS011;9646;52.034;5.554;2022-12-29T12:04:10;5.30;;;1.27;;
19026;SDS011;9646;52.034;5.554;2022-12-29T12:06:41;8.45;;;2.08;;
19026;SDS011;9646;52.034;5.554;2022-12-29T12:09:14;7.25;;;2.13;;
19026;SDS011;9646;52.034;5.554;2022-12-29T12:11:44;7.32;;;2.95;;
19026;SDS011;9646;52.034;5.554;2022-12-29T12:14:12;8.23;;;1.92;;
19026;SDS011;9646;52.034;5.554;2022-12-29T12:16:42;13.07;;;3.58;;
19026;SDS011;9646;52.034;5.554;2022-12-29T12:19:12;9.77;;;2.55;;
19026;SDS011;9646;52.034;5.554;2022-12-29T12:21:43;11.93;;;3.47;;
19026;SDS011;9646;52.034;5.554;2022-12-29T12:24:19;12.60;;;3.65;;
19026;SDS011;9646;52.034;5.554;2022-12-29T12:26:56;13.20;;;3.20;;
19026;SDS011;9646;52.034;5.554;2022-12-29T12:29:25;11.85;;;3.72;;
19026;SDS011;9646;52.034;5.554;2022-12-29T12:31:57;10.90;;;3.33;;
19026;SDS011;9646;52.034;5.554;2022-12-29T12:34:27;12.77;;;3.38;;
19026;SDS011;9646;52.034;5.554;2022-12-29T12:37:02;13.80;;;3.38;;
19026;SDS011;9646;52.034;5.554;2022-12-29T12:39:34;14.82;;;3.80;;
19026;SDS011;9646;52.034;5.554;2022-12-29T12:42:09;18.70;;;3.33;;
19026;SDS011;9646;52.034;5.554;2022-12-29T12:44:45;12.25;;;4.43;;
19026;SDS011;9646;52.034;5.554;2022-12-29T12:47:18;9.63;;;3.08;;
19026;SDS011;9646;52.034;5.554;2022-12-29T12:50:08;15.00;;;3.67;;
19026;SDS011;9646;52.034;5.554;2022-12-29T12:52:43;14.80;;;3.60;;
19026;SDS011;9646;52.034;5.554;2022-12-29T12:55:30;14.13;;;5.13;;
19026;SDS011;9646;52.034;5.554;2022-12-29T12:58:06;9.70;;;2.95;;
19026;SDS011;9646;52.034;5.554;2022-12-29T13:00:39;12.52;;;3.65;;
19026;SDS011;9646;52.034;5.554;2022-12-29T13:03:10;11.85;;;3.53;;
19026;SDS011;9646;52.034;5.554;2022-12-29T13:05:42;13.20;;;4.63;;
19026;SDS011;9646;52.034;5.554;2022-12-29T13:11:00;14.05;;;3.20;;
19026;SDS011;9646;52.034;5.554;2022-12-29T13:13:38;13.35;;;3.85;;
19026;SDS011;9646;52.034;5.554;2022-12-29T13:16:08;13.95;;;3.63;;
19026;SDS011;9646;52.034;5.554;2022-12-29T13:18:37;16.33;;;4.38;;
19026;SDS011;9646;52.034;5.554;2022-12-29T13:21:14;16.92;;;3.80;;
19026;SDS011;9646;52.034;5.554;2022-12-29T13:23:46;11.50;;;3.95;;
19026;SDS011;9646;52.034;5.554;2022-12-29T13:26:16;14.55;;;3.88;;
19026;SDS011;9646;52.034;5.554;2022-12-29T13:28:50;13.57;;;3.60;;
19026;SDS011;9646;52.034;5.554;2022-12-29T13:31:19;15.93;;;4.20;;
19026;SDS011;9646;52.034;5.554;2022-12-29T13:33:51;11.18;;;3.30;;
19026;SDS011;9646;52.034;5.554;2022-12-29T13:36:21;12.23;;;4.20;;
19026;SDS011;9646;52.034;5.554;2022-12-29T13:38:50;11.82;;;3.88;;
19026;SDS011;9646;52.034;5.554;2022-12-29T13:41:19;13.10;;;4.00;;
19026;SDS011;9646;52.034;5.554;2022-12-29T13:43:49;13.23;;;3.92;;
19026;SDS011;9646;52.034;5.554;2022-12-29T13:46:18;13.65;;;3.75;;
19026;SDS011;9646;52.034;5.554;2022-12-29T13:48:48;15.30;;;3.88;;
19026;SDS011;9646;52.034;5.554;2022-12-29T13:51:16;11.10;;;3.78;;
19026;SDS011;9646;52.034;5.554;2022-12-29T13:53:56;9.02;;;2.80;;
19026;SDS011;9646;52.034;5.554;2022-12-29T13:56:30;12.80;;;3.40;;
19026;SDS011;9646;52.034;5.554;2022-12-29T13:59:03;12.55;;;3.10;;
19026;SDS011;9646;52.034;5.554;2022-12-29T14:01:34;11.13;;;3.08;;
19026;SDS011;9646;52.034;5.554;2022-12-29T14:04:02;10.80;;;3.05;;
19026;SDS011;9646;52.034;5.554;2022-12-29T14:06:30;9.45;;;2.63;;
19026;SDS011;9646;52.034;5.554;2022-12-29T14:08:58;7.28;;;1.90;;
19026;SDS011;9646;52.034;5.554;2022-12-29T14:11:29;9.07;;;2.53;;
19026;SDS011;9646;52.034;5.554;2022-12-29T14:13:57;7.82;;;2.38;;
19026;SDS011;9646;52.034;5.554;2022-12-29T14:16:26;6.38;;;2.13;;
19026;SDS011;9646;52.034;5.554;2022-12-29T14:18:54;4.72;;;1.65;;
19026;SDS011;9646;52.034;5.554;2022-12-29T14:21:23;7.07;;;1.95;;
19026;SDS011;9646;52.034;5.554;2022-12-29T14:23:53;6.80;;;2.25;;
19026;SDS011;9646;52.034;5.554;2022-12-29T14:26:33;4.63;;;1.50;;
19026;SDS011;9646;52.034;5.554;2022-12-29T14:29:16;4.45;;;1.70;;
19026;SDS011;9646;52.034;5.554;2022-12-29T14:32:09;5.53;;;1.85;;
19026;SDS011;9646;52.034;5.554;2022-12-29T14:34:52;5.43;;;1.80;;
19026;SDS011;9646;52.034;5.554;2022-12-29T14:37:23;3.35;;;1.20;;
19026;SDS011;9646;52.034;5.554;2022-12-29T14:40:02;6.22;;;2.00;;
19026;SDS011;9646;52.034;5.554;2022-12-29T14:42:29;9.93;;;3.05;;
19026;SDS011;9646;52.034;5.554;2022-12-29T14:44:58;5.13;;;2.00;;
19026;SDS011;9646;52.034;5.554;2022-12-29T14:47:31;9.57;;;2.75;;
19026;SDS011;9646;52.034;5.554;2022-12-29T14:50:02;6.93;;;2.45;;
19026;SDS011;9646;52.034;5.554;2022-12-29T14:52:30;10.02;;;3.53;;
19026;SDS011;9646;52.034;5.554;2022-12-29T14:54:58;6.55;;;2.80;;
19026;SDS011;9646;52.034;5.554;2022-12-29T14:57:31;6.25;;;2.53;;
19026;SDS011;9646;52.034;5.554;2022-12-29T15:00:02;7.88;;;3.20;;
19026;SDS011;9646;52.034;5.554;2022-12-29T15:02:33;5.97;;;2.60;;
19026;SDS011;9646;52.034;5.554;2022-12-29T15:05:03;10.95;;;4.20;;
19026;SDS011;9646;52.034;5.554;2022-12-29T15:07:31;8.85;;;3.17;;
19026;SDS011;9646;52.034;5.554;2022-12-29T15:10:00;8.73;;;3.72;;
19026;SDS011;9646;52.034;5.554;2022-12-29T15:12:32;10.30;;;2.90;;
19026;SDS011;9646;52.034;5.554;2022-12-29T15:15:00;8.07;;;3.13;;
19026;SDS011;9646;52.034;5.554;2022-12-29T15:17:28;7.68;;;3.22;;
19026;SDS011;9646;52.034;5.554;2022-12-29T15:19:58;8.30;;;2.80;;
19026;SDS011;9646;52.034;5.554;2022-12-29T15:22:25;12.10;;;3.55;;
19026;SDS011;9646;52.034;5.554;2022-12-29T15:24:53;5.97;;;2.50;;
19026;SDS011;9646;52.034;5.554;2022-12-29T15:27:21;9.35;;;3.30;;